KELM/ELM METAR and TAF weather

Enter ICAO airport designator
Station Type Date Time Source
KELM METAR 2020/04/07 03:53 UTC NOAA

KELM 070353Z 14003KT 10SM OVC095 08/M01 A3001 RMK AO2 SLP163 T00831006


Station Type Date Time Source
KELM Decoded METAR 2020/04/07 03:53 UTC NOAA

ELMIRA COUNTY AIRPORT, NY, United States (KELM) 42-10N 76-54W 302M
Apr 06, 2020 - 11:53 PM EDT / 2020.04.07 0353 UTC
Wind: from the SE (140 degrees) at 3 MPH (3 KT):0
Visibility: 10 mile(s):0
Sky conditions: overcast
Temperature: 46.9 F (8.3 C)
Dew Point: 30.9 F (-0.6 C)
Relative Humidity: 53%
Pressure (altimeter): 30.01 in. Hg (1016 hPa)
ob: KELM 070353Z 14003KT 10SM OVC095 08/M01 A3001 RMK AO2 SLP163 T00831006
cycle: 4

Station Type Date Time Source
KELM TAF 2020/04/06 18:22 UTC NOAA

TAF KELM 061720Z 0618/0718 34007KT P6SM FEW200
FM070200 26003KT P6SM SCT100
FM071000 VRB02KT P6SM SCT220

Example: see airport list